Auburn Township, Ohio
Current Conditions -  °F | °C
As of 4:18 PM on Friday 24 Oct 2014 (Local Time) from KPOV Reporting Station
Clear Clear  
Wind Chill: 60°   Ceiling: Unl
Heat Index: 60°   Visibility: 10mi
Dew Point: 32°   Wind: 7mph
Humidity: 35%   Direction: 270°W
Pressure: 30"   Gusts: NA
Location:  41.2966°N, 81.2269°W
Report Text: KPOV 242018Z AUTO 27006KT 10SM CLR 16/00 A3000 RMK AO2 T01560002
Loading
Personal Weather Stations






























Interactive Weather Map
Tropical Storm Tracking
New forecast layout! Learn more

10-Day Weather Forecast

Advertisements
Track Severe Weather on mobile